createdAt,value
2023-04-09T00:01:15.971Z,6.82
2023-04-09T00:03:44.010Z,6.82
2023-04-09T00:06:12.948Z,6.82
2023-04-09T00:08:40.816Z,6.89
2023-04-09T00:11:08.645Z,6.87
2023-04-09T00:13:39.632Z,6.86
2023-04-09T00:16:08.892Z,6.85
2023-04-09T00:18:37.386Z,6.83
2023-04-09T00:21:05.842Z,6.79
2023-04-09T00:23:34.508Z,6.79
2023-04-09T00:26:02.528Z,6.76
2023-04-09T00:28:30.527Z,6.75
2023-04-09T00:30:58.437Z,6.71
2023-04-09T00:33:27.370Z,6.68
2023-04-09T00:35:55.699Z,6.72
2023-04-09T00:38:23.685Z,6.69
2023-04-09T00:40:51.980Z,6.67
2023-04-09T00:43:19.920Z,6.65
2023-04-09T00:45:48.238Z,6.64
2023-04-09T00:48:17.195Z,6.65
2023-04-09T00:50:45.071Z,6.67
2023-04-09T00:53:14.569Z,6.66
2023-04-09T00:55:42.701Z,6.67
2023-04-09T00:58:10.542Z,6.66
2023-04-09T01:00:38.471Z,6.68
2023-04-09T01:03:07.653Z,6.67
2023-04-09T01:06:04.165Z,6.68
2023-04-09T01:08:41.768Z,6.71
2023-04-09T01:11:24.411Z,6.75
2023-04-09T01:14:42.599Z,6.74
2023-04-09T01:17:24.425Z,6.71
2023-04-09T01:20:01.537Z,6.72
2023-04-09T01:22:41.304Z,6.74
2023-04-09T01:25:37.478Z,6.76
2023-04-09T01:28:46.592Z,6.76
2023-04-09T01:31:18.698Z,6.79
2023-04-09T01:33:47.198Z,6.83
2023-04-09T01:36:15.980Z,6.84
2023-04-09T01:38:46.145Z,6.86
2023-04-09T01:41:19.716Z,6.90
2023-04-09T01:43:51.045Z,6.91
2023-04-09T01:46:20.295Z,6.89
2023-04-09T01:48:49.750Z,6.90
2023-04-09T01:51:18.491Z,6.94
2023-04-09T01:53:46.364Z,6.96
2023-04-09T01:56:14.319Z,6.97
2023-04-09T01:58:42.372Z,6.98
2023-04-09T02:01:16.631Z,6.98
2023-04-09T02:03:51.903Z,6.98
2023-04-09T02:06:48.602Z,7.01
2023-04-09T02:09:19.537Z,7.01
2023-04-09T02:11:50.075Z,7.02
2023-04-09T02:14:19.274Z,7.07
2023-04-09T02:16:49.407Z,7.06
2023-04-09T02:19:17.209Z,7.04
2023-04-09T02:21:46.041Z,7.04
2023-04-09T02:24:13.933Z,7.03
2023-04-09T02:26:41.875Z,7.00
2023-04-09T02:29:10.068Z,7.00
2023-04-09T02:31:37.999Z,7.01
2023-04-09T02:34:05.887Z,7.01
2023-04-09T02:36:34.151Z,7.03
2023-04-09T02:39:02.092Z,7.00
2023-04-09T02:41:30.037Z,6.97
2023-04-09T02:43:57.904Z,6.94
2023-04-09T02:46:26.829Z,6.90
2023-04-09T02:48:54.795Z,6.94
2023-04-09T02:51:22.876Z,6.96
2023-04-09T02:53:50.883Z,6.88
2023-04-09T02:56:18.912Z,6.89
2023-04-09T02:58:49.555Z,6.91
2023-04-09T03:01:17.683Z,6.95
2023-04-09T03:03:46.340Z,6.98
2023-04-09T03:06:14.369Z,6.97
2023-04-09T03:08:42.234Z,6.98
2023-04-09T03:11:10.235Z,6.99
2023-04-09T03:13:39.031Z,7.03
2023-04-09T03:16:07.349Z,7.06
2023-04-09T03:18:35.270Z,7.07
2023-04-09T03:21:07.872Z,7.12
2023-04-09T03:23:37.247Z,7.22
2023-04-09T03:26:06.889Z,7.20
2023-04-09T03:28:40.982Z,7.19
2023-04-09T03:31:08.813Z,7.24
2023-04-09T03:33:38.181Z,7.26
2023-04-09T03:36:06.369Z,7.27
2023-04-09T03:38:43.092Z,7.34
2023-04-09T03:41:22.146Z,7.34
2023-04-09T03:43:50.272Z,7.36
2023-04-09T03:46:20.371Z,7.30
2023-04-09T03:48:48.860Z,7.23
2023-04-09T03:51:17.291Z,7.18
2023-04-09T03:53:50.560Z,7.12
2023-04-09T03:56:18.412Z,7.09
2023-04-09T03:58:48.502Z,7.04
2023-04-09T04:01:22.070Z,7.03
2023-04-09T04:03:54.732Z,6.98
2023-04-09T04:06:24.898Z,6.97
2023-04-09T04:08:58.462Z,6.98
2023-04-09T04:11:34.085Z,6.99
2023-04-09T04:14:01.953Z,6.98
2023-04-09T04:16:30.123Z,6.96
2023-04-09T04:18:58.637Z,6.95
2023-04-09T04:21:27.381Z,6.92
2023-04-09T04:24:00.118Z,6.89
2023-04-09T04:26:30.020Z,6.89
2023-04-09T04:28:58.208Z,6.90
2023-04-09T04:31:46.596Z,6.87
2023-04-09T04:34:15.372Z,6.86
2023-04-09T04:36:44.085Z,6.83
2023-04-09T04:39:12.399Z,6.76
2023-04-09T04:41:52.059Z,6.72
2023-04-09T04:44:23.143Z,6.72
2023-04-09T04:46:55.077Z,6.69
2023-04-09T04:49:22.929Z,6.70
2023-04-09T04:51:52.271Z,6.70
2023-04-09T04:54:20.235Z,6.69
2023-04-09T04:56:53.394Z,6.68
2023-04-09T04:59:32.620Z,6.70
2023-04-09T05:02:04.946Z,6.72
2023-04-09T05:04:38.087Z,6.73
2023-04-09T05:07:06.819Z,6.75
2023-04-09T05:09:36.511Z,6.77
2023-04-09T05:12:08.373Z,6.82
2023-04-09T05:14:36.401Z,6.89
2023-04-09T05:17:04.327Z,6.94
2023-04-09T05:19:41.402Z,7.01
2023-04-09T05:22:10.530Z,7.08
2023-04-09T05:24:38.372Z,7.12
2023-04-09T05:27:07.074Z,7.17
2023-04-09T05:29:35.744Z,7.14
2023-04-09T05:32:04.546Z,7.06
2023-04-09T05:34:36.411Z,7.01
2023-04-09T05:37:05.769Z,7.04
2023-04-09T05:39:34.327Z,7.02
2023-04-09T05:42:02.423Z,6.95
2023-04-09T05:44:34.178Z,6.95
2023-04-09T05:47:15.803Z,6.93
2023-04-09T05:49:49.716Z,6.99
2023-04-09T05:52:19.956Z,7.06
2023-04-09T05:54:48.173Z,7.13
2023-04-09T05:57:22.355Z,7.19
2023-04-09T05:59:55.801Z,7.26
2023-04-09T06:02:25.313Z,7.30
2023-04-09T06:04:55.783Z,7.29
2023-04-09T06:07:23.771Z,7.24
2023-04-09T06:09:51.637Z,7.28
2023-04-09T06:12:19.547Z,7.32
2023-04-09T06:14:48.847Z,7.38
2023-04-09T06:17:16.741Z,7.44
2023-04-09T06:19:44.668Z,7.49
2023-04-09T06:22:12.519Z,7.59
2023-04-09T06:24:40.448Z,7.63
2023-04-09T06:27:08.398Z,7.72
2023-04-09T06:29:36.204Z,7.75
2023-04-09T06:32:04.396Z,7.81
2023-04-09T06:34:32.360Z,7.80
2023-04-09T06:37:00.531Z,7.75
2023-04-09T06:39:28.668Z,7.76
2023-04-09T06:41:56.641Z,7.84
2023-04-09T06:44:39.361Z,7.88
2023-04-09T06:47:08.918Z,7.90
2023-04-09T06:49:36.829Z,7.85
2023-04-09T06:52:05.743Z,7.83
2023-04-09T06:54:33.683Z,7.87
2023-04-09T06:57:01.527Z,7.88
2023-04-09T06:59:29.381Z,7.94
2023-04-09T07:01:57.325Z,8.00
2023-04-09T07:04:25.714Z,8.02
2023-04-09T07:06:54.993Z,8.10
2023-04-09T07:09:22.808Z,8.19
2023-04-09T07:11:50.732Z,8.25
2023-04-09T07:14:18.627Z,8.32
2023-04-09T07:16:46.692Z,8.41
2023-04-09T07:19:14.765Z,8.49
2023-04-09T07:21:42.671Z,8.54
2023-04-09T07:24:10.537Z,8.65
2023-04-09T07:26:38.446Z,8.75
2023-04-09T07:29:06.480Z,8.91
2023-04-09T07:31:35.913Z,9.03
2023-04-09T07:34:04.019Z,9.10
2023-04-09T07:36:31.966Z,9.10
2023-04-09T07:39:00.003Z,9.20
2023-04-09T07:41:27.999Z,9.24
2023-04-09T07:43:56.376Z,9.33
2023-04-09T07:46:24.455Z,9.39
2023-04-09T07:48:53.038Z,9.46
2023-04-09T07:51:21.201Z,9.56
2023-04-09T07:53:49.160Z,9.65
2023-04-09T07:56:17.188Z,9.77
2023-04-09T07:58:45.455Z,9.85
2023-04-09T08:01:13.354Z,9.82
2023-04-09T08:03:42.630Z,9.79
2023-04-09T08:06:10.580Z,9.78
2023-04-09T08:08:38.903Z,9.81
2023-04-09T08:11:07.129Z,9.91
2023-04-09T08:13:35.031Z,9.94
2023-04-09T08:16:03.986Z,9.93
2023-04-09T08:18:32.149Z,10.01
2023-04-09T08:21:04.743Z,10.03
2023-04-09T08:23:32.719Z,10.10
2023-04-09T08:26:00.790Z,10.04
2023-04-09T08:28:28.751Z,10.08
2023-04-09T08:30:56.666Z,10.03
2023-04-09T08:33:24.554Z,9.99
2023-04-09T08:35:52.580Z,10.01
2023-04-09T08:38:20.613Z,10.26
2023-04-09T08:40:48.453Z,10.43
2023-04-09T08:43:19.606Z,10.50
2023-04-09T08:45:47.604Z,10.53
2023-04-09T08:48:17.165Z,10.59
2023-04-09T08:50:46.288Z,10.59
2023-04-09T08:53:17.031Z,10.52
2023-04-09T08:55:46.512Z,10.46
2023-04-09T08:58:14.710Z,10.48
2023-04-09T09:00:42.666Z,10.46
2023-04-09T09:03:13.367Z,10.55
2023-04-09T09:05:43.034Z,10.67
2023-04-09T09:08:13.851Z,10.82
2023-04-09T09:10:44.035Z,10.97
2023-04-09T09:13:19.084Z,11.16
2023-04-09T09:15:49.951Z,11.08
2023-04-09T09:18:19.437Z,10.92
2023-04-09T09:20:47.719Z,10.92
2023-04-09T09:23:16.304Z,10.96
2023-04-09T09:25:44.230Z,10.98
2023-04-09T09:28:13.189Z,11.00
2023-04-09T09:30:41.174Z,11.07
2023-04-09T09:33:10.740Z,11.07
2023-04-09T09:35:50.193Z,11.04
2023-04-09T09:38:18.682Z,11.04
2023-04-09T09:40:47.816Z,11.05
2023-04-09T09:43:16.423Z,10.99
2023-04-09T09:45:46.745Z,11.00
2023-04-09T09:48:15.627Z,11.02
2023-04-09T09:50:46.593Z,11.13
2023-04-09T09:53:17.465Z,11.18
2023-04-09T09:55:49.416Z,11.17
2023-04-09T09:58:23.804Z,11.11
2023-04-09T10:00:52.878Z,11.15
2023-04-09T10:03:25.159Z,11.19
2023-04-09T10:05:54.036Z,11.20
2023-04-09T10:08:23.584Z,11.06
2023-04-09T10:10:52.853Z,11.08
2023-04-09T10:13:32.675Z,11.10
2023-04-09T10:16:01.973Z,11.16
2023-04-09T10:18:33.659Z,11.19
2023-04-09T10:21:17.418Z,11.19
2023-04-09T10:23:50.973Z,11.19
2023-04-09T10:26:20.376Z,11.17
2023-04-09T10:29:06.991Z,11.14
2023-04-09T10:31:55.068Z,11.17
2023-04-09T10:34:28.201Z,11.03
2023-04-09T10:36:58.604Z,10.91
2023-04-09T10:39:28.852Z,10.98
2023-04-09T10:41:58.258Z,10.97
2023-04-09T10:44:27.938Z,10.87
2023-04-09T10:46:56.752Z,10.86
2023-04-09T10:49:26.623Z,10.88
2023-04-09T10:52:10.865Z,10.84
2023-04-09T10:54:46.486Z,10.89
2023-04-09T10:57:18.283Z,10.92
2023-04-09T10:59:51.959Z,11.00
2023-04-09T11:02:38.809Z,11.04
2023-04-09T11:05:24.649Z,11.11
2023-04-09T11:08:05.601Z,11.23
2023-04-09T11:10:34.043Z,11.28
2023-04-09T11:13:03.120Z,11.29
2023-04-09T11:15:34.510Z,11.21
2023-04-09T11:18:03.479Z,11.21
2023-04-09T11:20:34.119Z,11.20
2023-04-09T11:23:02.764Z,11.27
2023-04-09T11:25:32.317Z,11.35
2023-04-09T11:28:02.806Z,11.46
2023-04-09T11:30:31.347Z,11.60
2023-04-09T11:32:59.230Z,11.73
2023-04-09T11:35:27.450Z,11.79
2023-04-09T11:37:55.435Z,11.83
2023-04-09T11:40:25.972Z,11.90
2023-04-09T11:42:55.358Z,12.10
2023-04-09T11:45:26.545Z,12.22
2023-04-09T11:47:55.136Z,12.43
2023-04-09T11:50:23.451Z,12.64
2023-04-09T11:52:51.370Z,12.82
2023-04-09T11:55:29.809Z,12.81
2023-04-09T11:58:01.352Z,12.79
2023-04-09T12:00:29.554Z,12.78
2023-04-09T12:03:05.594Z,12.64
2023-04-09T12:05:35.683Z,12.68
2023-04-09T12:08:08.184Z,12.64
2023-04-09T12:10:38.139Z,12.60
2023-04-09T12:13:08.317Z,12.66
2023-04-09T12:15:38.929Z,12.73
2023-04-09T12:18:13.471Z,12.84
2023-04-09T12:20:47.612Z,12.77
2023-04-09T12:23:17.418Z,12.73
2023-04-09T12:25:45.573Z,12.82
2023-04-09T12:28:15.954Z,12.79
2023-04-09T12:30:44.632Z,12.72
2023-04-09T12:33:12.678Z,12.75
2023-04-09T12:35:40.634Z,12.63
2023-04-09T12:38:08.686Z,12.79
2023-04-09T12:40:37.113Z,12.75
2023-04-09T12:43:05.652Z,12.96
2023-04-09T12:45:33.650Z,13.05
2023-04-09T12:48:01.607Z,13.09
2023-04-09T12:50:29.550Z,13.10
2023-04-09T12:52:57.415Z,13.09
2023-04-09T12:55:25.473Z,13.16
2023-04-09T12:57:53.420Z,13.22
2023-04-09T13:00:21.388Z,13.23
2023-04-09T13:02:49.939Z,13.29
2023-04-09T13:05:18.079Z,13.30
2023-04-09T13:07:46.817Z,13.45
2023-04-09T13:10:14.752Z,13.63
2023-04-09T13:12:42.598Z,13.56
2023-04-09T13:15:11.936Z,13.62
2023-04-09T13:17:39.802Z,13.72
2023-04-09T13:20:08.412Z,13.71
2023-04-09T13:22:36.649Z,13.63
2023-04-09T13:25:04.950Z,13.83
2023-04-09T13:27:33.177Z,13.92
2023-04-09T13:30:01.045Z,13.94
2023-04-09T13:32:29.219Z,13.99
2023-04-09T13:34:58.056Z,13.90
2023-04-09T13:37:26.231Z,13.97
2023-04-09T13:39:54.062Z,14.04
2023-04-09T13:42:21.978Z,14.03
2023-04-09T13:44:49.771Z,14.05
2023-04-09T13:47:18.164Z,13.95
2023-04-09T13:49:46.264Z,13.88
2023-04-09T13:52:14.445Z,13.76
2023-04-09T13:54:42.494Z,13.58
2023-04-09T13:57:10.706Z,13.42
2023-04-09T13:59:38.629Z,13.43
2023-04-09T14:02:06.715Z,13.37
2023-04-09T14:04:34.958Z,13.39
2023-04-09T14:07:02.885Z,13.65
2023-04-09T14:09:30.782Z,13.71
2023-04-09T14:11:58.664Z,13.68
2023-04-09T14:14:26.767Z,13.73
2023-04-09T14:16:55.501Z,13.75
2023-04-09T14:19:23.417Z,13.69
2023-04-09T14:21:53.382Z,13.71
2023-04-09T14:24:23.212Z,13.71
2023-04-09T14:26:53.617Z,13.70
2023-04-09T14:29:22.150Z,13.62
2023-04-09T14:31:50.359Z,13.75
2023-04-09T14:34:18.299Z,13.79
2023-04-09T14:36:46.228Z,13.90
2023-04-09T14:39:14.263Z,13.94
2023-04-09T14:41:42.322Z,14.08
2023-04-09T14:44:10.395Z,14.25
2023-04-09T14:46:38.299Z,14.38
2023-04-09T14:49:06.456Z,14.51
2023-04-09T14:51:34.528Z,14.65
2023-04-09T14:54:02.438Z,14.62
2023-04-09T14:56:30.461Z,14.71
2023-04-09T14:58:58.257Z,14.79
2023-04-09T15:01:27.198Z,14.72
2023-04-09T15:03:55.671Z,14.73
2023-04-09T15:06:23.849Z,14.86
2023-04-09T15:08:51.985Z,15.08
2023-04-09T15:11:22.820Z,15.11
2023-04-09T15:13:51.942Z,15.15
2023-04-09T15:16:28.781Z,15.08
2023-04-09T15:18:58.912Z,14.95
2023-04-09T15:21:27.928Z,14.83
2023-04-09T15:23:59.062Z,14.66
2023-04-09T15:26:27.534Z,14.45
2023-04-09T15:29:04.125Z,14.30
2023-04-09T15:31:33.374Z,14.27
2023-04-09T15:34:01.519Z,14.20
2023-04-09T15:36:31.046Z,14.21
2023-04-09T15:38:59.019Z,14.22
2023-04-09T15:41:26.970Z,14.08
2023-04-09T15:43:54.947Z,13.99
2023-04-09T15:46:22.879Z,13.93
2023-04-09T15:48:51.162Z,13.80
2023-04-09T15:51:19.207Z,13.72
2023-04-09T15:53:47.204Z,13.73
2023-04-09T15:56:17.825Z,13.79
2023-04-09T15:58:46.524Z,13.82
2023-04-09T16:01:15.256Z,13.78
2023-04-09T16:03:43.353Z,13.79
2023-04-09T16:06:14.731Z,13.72
2023-04-09T16:08:42.587Z,13.63
2023-04-09T16:11:10.829Z,13.56
2023-04-09T16:13:38.776Z,13.49
2023-04-09T16:16:07.437Z,13.53
2023-04-09T16:18:35.744Z,13.54
2023-04-09T16:21:04.364Z,13.57
2023-04-09T16:23:33.164Z,13.85
2023-04-09T16:26:01.190Z,14.63
2023-04-09T16:28:29.010Z,15.29
2023-04-09T16:30:56.940Z,15.61
2023-04-09T16:33:24.949Z,15.33
2023-04-09T16:35:53.063Z,15.25
2023-04-09T16:38:21.106Z,15.18
2023-04-09T16:40:48.995Z,15.06
2023-04-09T16:43:16.946Z,14.87
2023-04-09T16:45:44.942Z,14.74
2023-04-09T16:48:13.571Z,14.53
2023-04-09T16:50:42.912Z,14.24
2023-04-09T16:53:10.882Z,14.04
2023-04-09T16:55:39.062Z,13.88
2023-04-09T16:58:06.885Z,13.71
2023-04-09T17:00:35.467Z,13.53
2023-04-09T17:03:04.071Z,13.40
2023-04-09T17:05:32.718Z,13.33
2023-04-09T17:08:01.380Z,13.25
2023-04-09T17:10:29.316Z,13.20
2023-04-09T17:12:57.203Z,13.12
2023-04-09T17:15:25.923Z,13.05
2023-04-09T17:17:54.369Z,12.91
2023-04-09T17:20:22.818Z,12.83
2023-04-09T17:22:51.375Z,12.78
2023-04-09T17:25:20.519Z,12.64
2023-04-09T17:27:48.604Z,12.57
2023-04-09T17:30:16.613Z,12.52
2023-04-09T17:32:44.957Z,12.51
2023-04-09T17:35:13.298Z,12.46
2023-04-09T17:37:41.105Z,12.39
2023-04-09T17:40:10.191Z,12.33
2023-04-09T17:42:38.719Z,12.24
2023-04-09T17:45:07.723Z,12.17
2023-04-09T17:47:35.739Z,12.10
2023-04-09T17:50:04.485Z,12.01
2023-04-09T17:52:36.784Z,11.88
2023-04-09T17:55:11.783Z,11.78
2023-04-09T17:57:41.796Z,11.75
2023-04-09T18:00:12.323Z,11.73
2023-04-09T18:02:54.189Z,11.69
2023-04-09T18:05:23.293Z,11.63
2023-04-09T18:07:53.763Z,11.57
2023-04-09T18:10:23.449Z,11.50
2023-04-09T18:12:51.933Z,11.37
2023-04-09T18:15:21.813Z,11.29
2023-04-09T18:17:49.968Z,11.20
2023-04-09T18:20:18.325Z,11.13
2023-04-09T18:22:46.446Z,11.09
2023-04-09T18:25:14.650Z,11.05
2023-04-09T18:27:42.970Z,10.99
2023-04-09T18:30:11.851Z,10.94
2023-04-09T18:32:40.099Z,10.90
2023-04-09T18:35:08.429Z,10.82
2023-04-09T18:37:36.395Z,10.76
2023-04-09T18:40:06.196Z,10.72
2023-04-09T18:42:34.230Z,10.70
2023-04-09T18:45:02.487Z,10.68
2023-04-09T18:47:30.480Z,10.66
2023-04-09T18:49:59.120Z,10.66
2023-04-09T18:52:27.372Z,10.64
2023-04-09T18:54:55.533Z,10.63
2023-04-09T18:57:23.687Z,10.64
2023-04-09T18:59:51.674Z,10.69
2023-04-09T19:02:20.060Z,10.69
2023-04-09T19:04:48.950Z,10.69
2023-04-09T19:07:19.506Z,10.69
2023-04-09T19:09:47.407Z,10.78
2023-04-09T19:12:15.884Z,10.85
2023-04-09T19:14:43.701Z,10.83
2023-04-09T19:17:11.887Z,10.79
2023-04-09T19:19:40.151Z,10.74
2023-04-09T19:22:07.993Z,10.74
2023-04-09T19:24:36.508Z,10.74
2023-04-09T19:27:10.024Z,10.67
2023-04-09T19:29:38.413Z,10.58
2023-04-09T19:32:09.326Z,10.54
2023-04-09T19:34:37.262Z,10.55
2023-04-09T19:37:05.076Z,10.57
2023-04-09T19:39:32.872Z,10.54
2023-04-09T19:42:00.828Z,10.54
2023-04-09T19:44:29.062Z,10.52
2023-04-09T19:46:56.976Z,10.41
2023-04-09T19:49:25.278Z,10.37
2023-04-09T19:51:53.199Z,10.32
2023-04-09T19:54:21.898Z,10.28
2023-04-09T19:56:50.121Z,10.23
2023-04-09T19:59:18.346Z,10.19
2023-04-09T20:01:48.113Z,10.18
2023-04-09T20:04:16.345Z,10.17
2023-04-09T20:06:44.690Z,10.15
2023-04-09T20:09:12.729Z,10.15
2023-04-09T20:11:42.226Z,10.09
2023-04-09T20:14:12.286Z,10.04
2023-04-09T20:16:40.256Z,10.02
2023-04-09T20:19:08.169Z,10.06
2023-04-09T20:21:36.094Z,10.07
2023-04-09T20:24:04.211Z,10.06
2023-04-09T20:26:32.119Z,10.10
2023-04-09T20:29:00.108Z,10.24
2023-04-09T20:31:28.675Z,10.20
2023-04-09T20:33:56.615Z,10.22
2023-04-09T20:36:24.550Z,10.23
2023-04-09T20:38:53.592Z,10.24
2023-04-09T20:41:21.825Z,10.21
2023-04-09T20:43:49.736Z,10.17
2023-04-09T20:46:17.764Z,10.07
2023-04-09T20:48:45.629Z,9.99
2023-04-09T20:51:13.641Z,9.98
2023-04-09T20:53:41.532Z,9.98
2023-04-09T20:56:09.513Z,10.10
2023-04-09T20:58:37.428Z,10.15
2023-04-09T21:01:07.801Z,10.21
2023-04-09T21:03:37.642Z,10.29
2023-04-09T21:06:09.817Z,10.28
2023-04-09T21:08:43.545Z,10.23
2023-04-09T21:11:12.654Z,10.12
2023-04-09T21:13:53.602Z,10.04
2023-04-09T21:16:23.001Z,9.93
2023-04-09T21:18:51.638Z,9.87
2023-04-09T21:21:19.916Z,9.84
2023-04-09T21:23:47.800Z,9.81
2023-04-09T21:26:15.721Z,9.75
2023-04-09T21:28:44.240Z,9.65
2023-04-09T21:31:12.251Z,9.62
2023-04-09T21:33:40.303Z,9.60
2023-04-09T21:36:08.551Z,9.29
2023-04-09T21:38:36.668Z,9.16
2023-04-09T21:41:04.870Z,9.07
2023-04-09T21:43:32.885Z,9.04
2023-04-09T21:46:02.297Z,8.99
2023-04-09T21:48:31.248Z,8.94
2023-04-09T21:50:59.560Z,8.92
2023-04-09T21:53:28.336Z,8.85
2023-04-09T21:55:56.303Z,8.77
2023-04-09T21:58:24.203Z,8.72
2023-04-09T22:00:52.268Z,8.67
2023-04-09T22:03:20.411Z,8.65
2023-04-09T22:05:48.611Z,8.53
2023-04-09T22:08:16.559Z,8.50
2023-04-09T22:10:44.514Z,8.42
2023-04-09T22:13:12.353Z,8.35
2023-04-09T22:15:41.898Z,8.33
2023-04-09T22:18:09.947Z,8.26
2023-04-09T22:20:37.979Z,8.21
2023-04-09T22:23:05.993Z,8.15
2023-04-09T22:25:35.239Z,8.10
2023-04-09T22:28:05.820Z,8.06
2023-04-09T22:30:33.885Z,8.02
2023-04-09T22:33:02.389Z,7.99
2023-04-09T22:35:32.708Z,7.94
2023-04-09T22:38:00.621Z,7.89
2023-04-09T22:40:28.575Z,7.79
2023-04-09T22:42:56.477Z,7.75
2023-04-09T22:45:27.893Z,7.68
2023-04-09T22:47:57.132Z,7.54
2023-04-09T22:50:28.859Z,7.45
2023-04-09T22:52:56.776Z,7.35
2023-04-09T22:55:24.708Z,7.31
2023-04-09T22:57:53.254Z,7.20
2023-04-09T23:00:21.271Z,7.11
2023-04-09T23:02:50.943Z,7.06
2023-04-09T23:05:19.252Z,7.03
2023-04-09T23:07:47.177Z,6.96
2023-04-09T23:10:17.404Z,6.91
2023-04-09T23:12:45.391Z,6.87
2023-04-09T23:15:13.434Z,6.85
2023-04-09T23:17:41.764Z,6.81
2023-04-09T23:20:11.487Z,6.76
2023-04-09T23:22:39.396Z,6.71
2023-04-09T23:25:07.646Z,6.68
2023-04-09T23:27:35.589Z,6.58
2023-04-09T23:30:03.732Z,6.49
2023-04-09T23:32:31.658Z,6.33
2023-04-09T23:35:01.283Z,6.21
2023-04-09T23:37:29.331Z,6.19
2023-04-09T23:39:57.226Z,6.12
2023-04-09T23:42:26.346Z,6.07
2023-04-09T23:44:54.266Z,6.01
2023-04-09T23:47:22.261Z,5.96
2023-04-09T23:49:50.112Z,5.96
2023-04-09T23:52:18.004Z,5.94
2023-04-09T23:54:51.694Z,5.93
2023-04-09T23:57:19.595Z,5.92
2023-04-09T23:59:47.593Z,5.89
